sensor_id;sensor_type;location;lat;lon;timestamp;temperature;humidity
26224;DHT22;14820;48.682;8.890;2023-02-28T00:00:25;-0.90;99.90
26224;DHT22;14820;48.682;8.890;2023-02-28T00:02:51;-0.90;99.90
26224;DHT22;14820;48.682;8.890;2023-02-28T00:05:19;-0.90;99.90
26224;DHT22;14820;48.682;8.890;2023-02-28T00:07:46;-1.00;99.90
26224;DHT22;14820;48.682;8.890;2023-02-28T00:10:18;-1.00;99.90
26224;DHT22;14820;48.682;8.890;2023-02-28T00:12:50;-1.00;99.90
26224;DHT22;14820;48.682;8.890;2023-02-28T00:15:16;-1.00;99.90
26224;DHT22;14820;48.682;8.890;2023-02-28T00:17:42;-1.00;99.90
26224;DHT22;14820;48.682;8.890;2023-02-28T00:20:09;-1.10;99.90
26224;DHT22;14820;48.682;8.890;2023-02-28T00:22:42;-1.10;99.90
26224;DHT22;14820;48.682;8.890;2023-02-28T00:25:14;-1.10;99.90
26224;DHT22;14820;48.682;8.890;2023-02-28T00:27:40;-1.10;99.90
26224;DHT22;14820;48.682;8.890;2023-02-28T00:30:08;-1.20;99.90
26224;DHT22;14820;48.682;8.890;2023-02-28T00:32:35;-1.20;99.90
26224;DHT22;14820;48.682;8.890;2023-02-28T00:35:01;-1.20;99.90
26224;DHT22;14820;48.682;8.890;2023-02-28T00:37:27;-1.20;99.90
26224;DHT22;14820;48.682;8.890;2023-02-28T00:39:53;-1.20;99.90
26224;DHT22;14820;48.682;8.890;2023-02-28T00:42:19;-1.30;99.90
26224;DHT22;14820;48.682;8.890;2023-02-28T00:44:44;-1.30;99.90
26224;DHT22;14820;48.682;8.890;2023-02-28T00:47:10;-1.20;99.90
26224;DHT22;14820;48.682;8.890;2023-02-28T00:49:36;-1.30;99.90
26224;DHT22;14820;48.682;8.890;2023-02-28T00:52:02;-1.30;99.90
26224;DHT22;14820;48.682;8.890;2023-02-28T00:54:28;-1.30;99.90
26224;DHT22;14820;48.682;8.890;2023-02-28T00:56:53;-1.30;99.90
26224;DHT22;14820;48.682;8.890;2023-02-28T00:59:19;-1.30;99.90
26224;DHT22;14820;48.682;8.890;2023-02-28T01:01:46;-1.30;99.90
26224;DHT22;14820;48.682;8.890;2023-02-28T01:04:12;-1.30;99.90
26224;DHT22;14820;48.682;8.890;2023-02-28T01:06:39;-1.40;99.90
26224;DHT22;14820;48.682;8.890;2023-02-28T01:09:05;-1.40;99.90
26224;DHT22;14820;48.682;8.890;2023-02-28T01:11:31;-1.40;99.90
26224;DHT22;14820;48.682;8.890;2023-02-28T01:13:58;-1.50;99.90
26224;DHT22;14820;48.682;8.890;2023-02-28T01:16:24;-1.50;99.90
26224;DHT22;14820;48.682;8.890;2023-02-28T01:18:49;-1.50;99.90
26224;DHT22;14820;48.682;8.890;2023-02-28T01:21:17;-1.50;99.90
26224;DHT22;14820;48.682;8.890;2023-02-28T01:23:43;-1.50;99.90
26224;DHT22;14820;48.682;8.890;2023-02-28T01:26:18;-1.50;99.90
26224;DHT22;14820;48.682;8.890;2023-02-28T01:28:44;-1.50;99.90
26224;DHT22;14820;48.682;8.890;2023-02-28T01:31:10;-1.50;99.90
26224;DHT22;14820;48.682;8.890;2023-02-28T01:33:36;-1.60;99.90
26224;DHT22;14820;48.682;8.890;2023-02-28T01:36:05;-1.60;99.90
26224;DHT22;14820;48.682;8.890;2023-02-28T01:38:31;-1.60;99.90
26224;DHT22;14820;48.682;8.890;2023-02-28T01:40:57;-1.60;99.90
26224;DHT22;14820;48.682;8.890;2023-02-28T01:43:26;-1.60;99.90
26224;DHT22;14820;48.682;8.890;2023-02-28T01:45:54;-1.60;99.90
26224;DHT22;14820;48.682;8.890;2023-02-28T01:48:24;-1.60;99.90
26224;DHT22;14820;48.682;8.890;2023-02-28T01:50:52;-1.60;99.90
26224;DHT22;14820;48.682;8.890;2023-02-28T01:53:23;-1.60;99.90
26224;DHT22;14820;48.682;8.890;2023-02-28T01:55:51;-1.60;99.90
26224;DHT22;14820;48.682;8.890;2023-02-28T01:58:18;-1.70;99.90
26224;DHT22;14820;48.682;8.890;2023-02-28T02:00:44;-1.60;99.90
26224;DHT22;14820;48.682;8.890;2023-02-28T02:03:13;-1.70;99.90
26224;DHT22;14820;48.682;8.890;2023-02-28T02:05:40;-1.70;99.90
26224;DHT22;14820;48.682;8.890;2023-02-28T02:08:12;-1.60;99.90
26224;DHT22;14820;48.682;8.890;2023-02-28T02:10:46;-1.70;99.90
26224;DHT22;14820;48.682;8.890;2023-02-28T02:13:20;-1.70;99.90
26224;DHT22;14820;48.682;8.890;2023-02-28T02:18:42;-1.70;99.90
26224;DHT22;14820;48.682;8.890;2023-02-28T02:38:02;-1.80;99.90
26224;DHT22;14820;48.682;8.890;2023-02-28T02:40:47;-1.80;99.90
26224;DHT22;14820;48.682;8.890;2023-02-28T02:43:38;-1.80;99.90
26224;DHT22;14820;48.682;8.890;2023-02-28T02:46:17;-1.80;99.90
26224;DHT22;14820;48.682;8.890;2023-02-28T02:48:45;-1.80;99.90
26224;DHT22;14820;48.682;8.890;2023-02-28T02:51:16;-1.80;99.90
26224;DHT22;14820;48.682;8.890;2023-02-28T02:53:49;-1.80;99.90
26224;DHT22;14820;48.682;8.890;2023-02-28T02:56:22;-1.80;99.90
26224;DHT22;14820;48.682;8.890;2023-02-28T02:58:49;-1.80;99.90
26224;DHT22;14820;48.682;8.890;2023-02-28T03:01:22;-1.80;99.90
26224;DHT22;14820;48.682;8.890;2023-02-28T03:04:00;-1.80;99.90
26224;DHT22;14820;48.682;8.890;2023-02-28T03:06:27;-1.80;99.90
26224;DHT22;14820;48.682;8.890;2023-02-28T03:08:53;-1.80;99.90
26224;DHT22;14820;48.682;8.890;2023-02-28T03:11:19;-1.80;99.90
26224;DHT22;14820;48.682;8.890;2023-02-28T03:16:33;-1.80;99.90
26224;DHT22;14820;48.682;8.890;2023-02-28T03:24:18;-1.70;99.90
26224;DHT22;14820;48.682;8.890;2023-02-28T03:27:09;-1.80;99.90
26224;DHT22;14820;48.682;8.890;2023-02-28T03:29:46;-1.70;99.90
26224;DHT22;14820;48.682;8.890;2023-02-28T03:32:26;-1.80;99.90
26224;DHT22;14820;48.682;8.890;2023-02-28T03:35:02;-1.70;99.90
26224;DHT22;14820;48.682;8.890;2023-02-28T03:37:33;-1.70;99.90
26224;DHT22;14820;48.682;8.890;2023-02-28T03:40:09;-1.70;99.90
26224;DHT22;14820;48.682;8.890;2023-02-28T03:42:40;-1.70;99.90
26224;DHT22;14820;48.682;8.890;2023-02-28T03:45:13;-1.70;99.90
26224;DHT22;14820;48.682;8.890;2023-02-28T03:47:54;-1.80;99.90
26224;DHT22;14820;48.682;8.890;2023-02-28T03:53:13;-1.80;99.90
26224;DHT22;14820;48.682;8.890;2023-02-28T03:55:45;-1.70;99.90
26224;DHT22;14820;48.682;8.890;2023-02-28T04:01:07;-1.70;99.90
26224;DHT22;14820;48.682;8.890;2023-02-28T04:03:35;-1.70;99.90
26224;DHT22;14820;48.682;8.890;2023-02-28T04:06:01;-1.70;99.90
26224;DHT22;14820;48.682;8.890;2023-02-28T04:08:27;-1.70;99.90
26224;DHT22;14820;48.682;8.890;2023-02-28T04:10:59;-1.70;99.90
26224;DHT22;14820;48.682;8.890;2023-02-28T04:13:26;-1.70;99.90
26224;DHT22;14820;48.682;8.890;2023-02-28T04:15:52;-1.70;99.90
26224;DHT22;14820;48.682;8.890;2023-02-28T04:18:18;-1.70;99.90
26224;DHT22;14820;48.682;8.890;2023-02-28T04:20:43;-1.70;99.90
26224;DHT22;14820;48.682;8.890;2023-02-28T04:23:09;-1.70;99.90
26224;DHT22;14820;48.682;8.890;2023-02-28T04:25:34;-1.60;99.90
26224;DHT22;14820;48.682;8.890;2023-02-28T04:28:00;-1.60;99.90
26224;DHT22;14820;48.682;8.890;2023-02-28T04:30:26;-1.60;99.90
26224;DHT22;14820;48.682;8.890;2023-02-28T04:32:51;-1.70;99.90
26224;DHT22;14820;48.682;8.890;2023-02-28T04:35:17;-1.60;99.90
26224;DHT22;14820;48.682;8.890;2023-02-28T04:37:42;-1.60;99.90
26224;DHT22;14820;48.682;8.890;2023-02-28T04:40:09;-1.60;99.90
26224;DHT22;14820;48.682;8.890;2023-02-28T04:42:34;-1.60;99.90
26224;DHT22;14820;48.682;8.890;2023-02-28T04:45:04;-1.60;99.90
26224;DHT22;14820;48.682;8.890;2023-02-28T04:47:30;-1.60;99.90
26224;DHT22;14820;48.682;8.890;2023-02-28T04:49:56;-1.60;99.90
26224;DHT22;14820;48.682;8.890;2023-02-28T04:52:22;-1.60;99.90
26224;DHT22;14820;48.682;8.890;2023-02-28T04:54:47;-1.60;99.90
26224;DHT22;14820;48.682;8.890;2023-02-28T04:57:13;-1.60;99.90
26224;DHT22;14820;48.682;8.890;2023-02-28T04:59:39;-1.60;99.90
26224;DHT22;14820;48.682;8.890;2023-02-28T05:02:05;-1.60;99.90
26224;DHT22;14820;48.682;8.890;2023-02-28T05:04:33;-1.60;99.90
26224;DHT22;14820;48.682;8.890;2023-02-28T05:07:00;-1.60;99.90
26224;DHT22;14820;48.682;8.890;2023-02-28T05:09:26;-1.50;99.90
26224;DHT22;14820;48.682;8.890;2023-02-28T05:11:51;-1.50;99.90
26224;DHT22;14820;48.682;8.890;2023-02-28T05:14:17;-1.50;99.90
26224;DHT22;14820;48.682;8.890;2023-02-28T05:16:43;-1.50;99.90
26224;DHT22;14820;48.682;8.890;2023-02-28T05:19:08;-1.50;99.90
26224;DHT22;14820;48.682;8.890;2023-02-28T05:22:00;-1.50;99.90
26224;DHT22;14820;48.682;8.890;2023-02-28T05:24:26;-1.50;99.90
26224;DHT22;14820;48.682;8.890;2023-02-28T05:26:53;-1.40;99.90
26224;DHT22;14820;48.682;8.890;2023-02-28T05:29:19;-1.40;99.90
26224;DHT22;14820;48.682;8.890;2023-02-28T05:31:45;-1.40;99.90
26224;DHT22;14820;48.682;8.890;2023-02-28T05:34:11;-1.40;99.90
26224;DHT22;14820;48.682;8.890;2023-02-28T05:36:38;-1.40;99.90
26224;DHT22;14820;48.682;8.890;2023-02-28T05:39:06;-1.40;99.90
26224;DHT22;14820;48.682;8.890;2023-02-28T05:41:32;-1.40;99.90
26224;DHT22;14820;48.682;8.890;2023-02-28T05:43:58;-1.40;99.90
26224;DHT22;14820;48.682;8.890;2023-02-28T05:46:25;-1.40;99.90
26224;DHT22;14820;48.682;8.890;2023-02-28T05:48:50;-1.40;99.90
26224;DHT22;14820;48.682;8.890;2023-02-28T05:51:17;-1.40;99.90
26224;DHT22;14820;48.682;8.890;2023-02-28T05:53:43;-1.40;99.90
26224;DHT22;14820;48.682;8.890;2023-02-28T05:56:09;-1.40;99.90
26224;DHT22;14820;48.682;8.890;2023-02-28T05:58:34;-1.40;99.90
26224;DHT22;14820;48.682;8.890;2023-02-28T06:01:18;-1.40;99.90
26224;DHT22;14820;48.682;8.890;2023-02-28T06:03:44;-1.40;99.90
26224;DHT22;14820;48.682;8.890;2023-02-28T06:06:10;-1.40;99.90
26224;DHT22;14820;48.682;8.890;2023-02-28T06:08:35;-1.40;99.90
26224;DHT22;14820;48.682;8.890;2023-02-28T06:11:04;-1.40;99.90
26224;DHT22;14820;48.682;8.890;2023-02-28T06:13:30;-1.40;99.90
26224;DHT22;14820;48.682;8.890;2023-02-28T06:15:55;-1.40;99.90
26224;DHT22;14820;48.682;8.890;2023-02-28T06:18:21;-1.40;99.90
26224;DHT22;14820;48.682;8.890;2023-02-28T06:20:54;-1.30;99.90
26224;DHT22;14820;48.682;8.890;2023-02-28T06:23:21;-1.40;99.90
26224;DHT22;14820;48.682;8.890;2023-02-28T06:25:47;-1.30;99.90
26224;DHT22;14820;48.682;8.890;2023-02-28T06:28:13;-1.40;99.90
26224;DHT22;14820;48.682;8.890;2023-02-28T06:30:38;-1.30;99.90
26224;DHT22;14820;48.682;8.890;2023-02-28T06:33:04;-1.30;99.90
26224;DHT22;14820;48.682;8.890;2023-02-28T06:35:30;-1.30;99.90
26224;DHT22;14820;48.682;8.890;2023-02-28T06:37:56;-1.30;99.90
26224;DHT22;14820;48.682;8.890;2023-02-28T06:40:21;-1.30;99.90
26224;DHT22;14820;48.682;8.890;2023-02-28T06:42:47;-1.30;99.90
26224;DHT22;14820;48.682;8.890;2023-02-28T06:45:13;-1.20;99.90
26224;DHT22;14820;48.682;8.890;2023-02-28T06:47:40;-1.30;99.90
26224;DHT22;14820;48.682;8.890;2023-02-28T06:50:08;-1.30;99.90
26224;DHT22;14820;48.682;8.890;2023-02-28T06:52:34;-1.30;99.90
26224;DHT22;14820;48.682;8.890;2023-02-28T06:55:06;-1.30;99.90
26224;DHT22;14820;48.682;8.890;2023-02-28T06:57:33;-1.30;99.90
26224;DHT22;14820;48.682;8.890;2023-02-28T07:00:00;-1.30;99.90
26224;DHT22;14820;48.682;8.890;2023-02-28T07:02:26;-1.30;99.90
26224;DHT22;14820;48.682;8.890;2023-02-28T07:04:53;-1.20;99.90
26224;DHT22;14820;48.682;8.890;2023-02-28T07:07:18;-1.20;99.90
26224;DHT22;14820;48.682;8.890;2023-02-28T07:09:44;-1.20;99.90
26224;DHT22;14820;48.682;8.890;2023-02-28T07:12:09;-1.20;99.90
26224;DHT22;14820;48.682;8.890;2023-02-28T07:14:36;-1.20;99.90
26224;DHT22;14820;48.682;8.890;2023-02-28T07:17:02;-1.10;99.90
26224;DHT22;14820;48.682;8.890;2023-02-28T07:19:27;-1.10;99.90
26224;DHT22;14820;48.682;8.890;2023-02-28T07:21:53;-1.10;99.90
26224;DHT22;14820;48.682;8.890;2023-02-28T07:24:19;-1.10;99.90
26224;DHT22;14820;48.682;8.890;2023-02-28T07:26:44;-1.10;99.90
26224;DHT22;14820;48.682;8.890;2023-02-28T07:29:10;-1.10;99.90
26224;DHT22;14820;48.682;8.890;2023-02-28T07:31:36;-1.10;99.90
26224;DHT22;14820;48.682;8.890;2023-02-28T07:34:02;-1.10;99.90
26224;DHT22;14820;48.682;8.890;2023-02-28T07:36:28;-1.00;99.90
26224;DHT22;14820;48.682;8.890;2023-02-28T07:38:54;-1.00;99.90
26224;DHT22;14820;48.682;8.890;2023-02-28T07:41:21;-1.10;99.90
26224;DHT22;14820;48.682;8.890;2023-02-28T07:43:47;-1.00;99.90
26224;DHT22;14820;48.682;8.890;2023-02-28T07:46:15;-1.00;99.90
26224;DHT22;14820;48.682;8.890;2023-02-28T07:48:42;-1.00;99.90
26224;DHT22;14820;48.682;8.890;2023-02-28T07:51:08;-1.00;99.90
26224;DHT22;14820;48.682;8.890;2023-02-28T07:53:33;-1.00;99.90
26224;DHT22;14820;48.682;8.890;2023-02-28T07:56:00;-1.00;99.90
26224;DHT22;14820;48.682;8.890;2023-02-28T07:58:28;-0.90;99.90
26224;DHT22;14820;48.682;8.890;2023-02-28T08:00:54;-1.00;99.90
26224;DHT22;14820;48.682;8.890;2023-02-28T08:03:21;-1.00;99.90
26224;DHT22;14820;48.682;8.890;2023-02-28T08:05:48;-0.90;99.90
26224;DHT22;14820;48.682;8.890;2023-02-28T08:08:15;-0.90;99.90
26224;DHT22;14820;48.682;8.890;2023-02-28T08:10:41;-1.00;99.90
26224;DHT22;14820;48.682;8.890;2023-02-28T08:13:07;-0.90;99.90
26224;DHT22;14820;48.682;8.890;2023-02-28T08:15:32;-0.90;99.90
26224;DHT22;14820;48.682;8.890;2023-02-28T08:17:58;-0.90;99.90
26224;DHT22;14820;48.682;8.890;2023-02-28T08:20:24;-0.90;99.90
26224;DHT22;14820;48.682;8.890;2023-02-28T08:22:50;-0.90;99.90
26224;DHT22;14820;48.682;8.890;2023-02-28T08:25:16;-0.90;99.90
26224;DHT22;14820;48.682;8.890;2023-02-28T08:27:42;-0.80;99.90
26224;DHT22;14820;48.682;8.890;2023-02-28T08:30:11;-0.80;99.90
26224;DHT22;14820;48.682;8.890;2023-02-28T08:32:37;-0.80;99.90
26224;DHT22;14820;48.682;8.890;2023-02-28T08:35:03;-0.70;99.90
26224;DHT22;14820;48.682;8.890;2023-02-28T08:37:29;-0.70;99.90
26224;DHT22;14820;48.682;8.890;2023-02-28T08:39:55;-0.70;99.90
26224;DHT22;14820;48.682;8.890;2023-02-28T08:42:20;-0.70;99.90
26224;DHT22;14820;48.682;8.890;2023-02-28T08:44:46;-0.60;99.90
26224;DHT22;14820;48.682;8.890;2023-02-28T08:47:12;-0.50;99.90
26224;DHT22;14820;48.682;8.890;2023-02-28T08:49:38;-0.60;99.90
26224;DHT22;14820;48.682;8.890;2023-02-28T08:52:03;-0.50;99.90
26224;DHT22;14820;48.682;8.890;2023-02-28T08:54:29;-0.50;99.90
26224;DHT22;14820;48.682;8.890;2023-02-28T08:56:56;-0.50;99.90
26224;DHT22;14820;48.682;8.890;2023-02-28T08:59:22;-0.50;99.90
26224;DHT22;14820;48.682;8.890;2023-02-28T09:01:48;-0.50;99.90
26224;DHT22;14820;48.682;8.890;2023-02-28T09:04:14;-0.50;99.90
26224;DHT22;14820;48.682;8.890;2023-02-28T09:06:39;-0.50;99.90
26224;DHT22;14820;48.682;8.890;2023-02-28T09:09:05;-0.40;99.90
26224;DHT22;14820;48.682;8.890;2023-02-28T09:11:33;-0.40;99.90
26224;DHT22;14820;48.682;8.890;2023-02-28T09:14:00;-0.40;99.90
26224;DHT22;14820;48.682;8.890;2023-02-28T09:16:26;-0.30;99.90
26224;DHT22;14820;48.682;8.890;2023-02-28T09:18:52;-0.30;99.90
26224;DHT22;14820;48.682;8.890;2023-02-28T09:21:18;-0.30;99.90
26224;DHT22;14820;48.682;8.890;2023-02-28T09:23:46;-0.30;99.90
26224;DHT22;14820;48.682;8.890;2023-02-28T09:26:17;-0.30;99.90
26224;DHT22;14820;48.682;8.890;2023-02-28T09:28:44;-0.30;99.90
26224;DHT22;14820;48.682;8.890;2023-02-28T09:31:13;-0.20;99.90
26224;DHT22;14820;48.682;8.890;2023-02-28T09:33:40;-0.20;99.90
26224;DHT22;14820;48.682;8.890;2023-02-28T09:36:07;-0.20;99.90
26224;DHT22;14820;48.682;8.890;2023-02-28T09:38:32;-0.10;99.90
26224;DHT22;14820;48.682;8.890;2023-02-28T09:41:01;-0.20;99.90
26224;DHT22;14820;48.682;8.890;2023-02-28T09:43:36;-0.10;99.90
26224;DHT22;14820;48.682;8.890;2023-02-28T09:48:55;0.00;99.90
26224;DHT22;14820;48.682;8.890;2023-02-28T09:53:54;0.00;99.90
26224;DHT22;14820;48.682;8.890;2023-02-28T09:56:26;0.00;99.90
26224;DHT22;14820;48.682;8.890;2023-02-28T10:03:57;0.10;99.90
26224;DHT22;14820;48.682;8.890;2023-02-28T10:06:29;0.10;99.90
26224;DHT22;14820;48.682;8.890;2023-02-28T10:09:03;0.10;99.90
26224;DHT22;14820;48.682;8.890;2023-02-28T10:11:32;0.10;99.90
26224;DHT22;14820;48.682;8.890;2023-02-28T10:14:06;0.20;99.90
26224;DHT22;14820;48.682;8.890;2023-02-28T10:16:43;0.20;99.90
26224;DHT22;14820;48.682;8.890;2023-02-28T10:19:23;0.20;99.90
26224;DHT22;14820;48.682;8.890;2023-02-28T10:22:00;0.30;99.90
26224;DHT22;14820;48.682;8.890;2023-02-28T10:24:35;0.20;99.90
26224;DHT22;14820;48.682;8.890;2023-02-28T10:27:23;0.30;99.90
26224;DHT22;14820;48.682;8.890;2023-02-28T10:30:00;0.30;99.90
26224;DHT22;14820;48.682;8.890;2023-02-28T10:32:31;0.30;99.90
26224;DHT22;14820;48.682;8.890;2023-02-28T10:35:14;0.30;99.90
26224;DHT22;14820;48.682;8.890;2023-02-28T10:37:42;0.40;99.90
26224;DHT22;14820;48.682;8.890;2023-02-28T10:40:32;0.40;99.90
26224;DHT22;14820;48.682;8.890;2023-02-28T10:45:28;0.50;99.90
26224;DHT22;14820;48.682;8.890;2023-02-28T10:47:55;0.50;99.90
26224;DHT22;14820;48.682;8.890;2023-02-28T10:51:12;0.50;99.90
26224;DHT22;14820;48.682;8.890;2023-02-28T10:56:14;0.60;99.90
26224;DHT22;14820;48.682;8.890;2023-02-28T10:58:59;0.60;99.90
26224;DHT22;14820;48.682;8.890;2023-02-28T11:01:44;0.70;99.90
26224;DHT22;14820;48.682;8.890;2023-02-28T11:06:59;0.70;99.90
26224;DHT22;14820;48.682;8.890;2023-02-28T11:12:07;0.80;99.90
26224;DHT22;14820;48.682;8.890;2023-02-28T11:14:40;0.90;99.90
26224;DHT22;14820;48.682;8.890;2023-02-28T11:17:24;0.90;99.90
26224;DHT22;14820;48.682;8.890;2023-02-28T11:19:53;0.90;99.90
26224;DHT22;14820;48.682;8.890;2023-02-28T11:22:23;0.90;99.90
26224;DHT22;14820;48.682;8.890;2023-02-28T11:24:54;1.00;99.90
26224;DHT22;14820;48.682;8.890;2023-02-28T11:29:54;1.10;99.90
26224;DHT22;14820;48.682;8.890;2023-02-28T11:32:22;1.20;99.90
26224;DHT22;14820;48.682;8.890;2023-02-28T11:37:36;1.30;99.90
26224;DHT22;14820;48.682;8.890;2023-02-28T11:40:08;1.30;99.90
26224;DHT22;14820;48.682;8.890;2023-02-28T11:45:33;1.70;99.90
26224;DHT22;14820;48.682;8.890;2023-02-28T11:48:12;1.80;99.90
26224;DHT22;14820;48.682;8.890;2023-02-28T11:51:03;1.90;99.90
26224;DHT22;14820;48.682;8.890;2023-02-28T11:56:44;2.30;99.90
26224;DHT22;14820;48.682;8.890;2023-02-28T12:05:03;3.00;99.90
26224;DHT22;14820;48.682;8.890;2023-02-28T12:10:21;3.50;99.90
26224;DHT22;14820;48.682;8.890;2023-02-28T12:19:26;3.90;99.90
26224;DHT22;14820;48.682;8.890;2023-02-28T12:24:15;3.80;99.90
26224;DHT22;14820;48.682;8.890;2023-02-28T12:26:49;3.60;99.90
26224;DHT22;14820;48.682;8.890;2023-02-28T12:29:26;3.60;99.90
26224;DHT22;14820;48.682;8.890;2023-02-28T12:32:16;3.60;99.90
26224;DHT22;14820;48.682;8.890;2023-02-28T12:34:44;3.50;99.90
26224;DHT22;14820;48.682;8.890;2023-02-28T12:37:17;3.50;99.90
26224;DHT22;14820;48.682;8.890;2023-02-28T12:39:50;3.50;99.90
26224;DHT22;14820;48.682;8.890;2023-02-28T12:42:30;3.70;99.90
26224;DHT22;14820;48.682;8.890;2023-02-28T12:45:00;3.80;99.90
26224;DHT22;14820;48.682;8.890;2023-02-28T12:47:26;3.80;99.90
26224;DHT22;14820;48.682;8.890;2023-02-28T12:49:59;3.90;99.90
26224;DHT22;14820;48.682;8.890;2023-02-28T12:55:21;4.20;99.90
26224;DHT22;14820;48.682;8.890;2023-02-28T13:00:25;4.60;99.90
26224;DHT22;14820;48.682;8.890;2023-02-28T13:05:31;4.80;99.90
26224;DHT22;14820;48.682;8.890;2023-02-28T13:08:16;4.80;99.90
26224;DHT22;14820;48.682;8.890;2023-02-28T13:10:48;4.90;99.90
26224;DHT22;14820;48.682;8.890;2023-02-28T13:13:26;5.10;99.90
26224;DHT22;14820;48.682;8.890;2023-02-28T13:16:10;5.20;99.90
26224;DHT22;14820;48.682;8.890;2023-02-28T13:18:44;5.30;99.90
26224;DHT22;14820;48.682;8.890;2023-02-28T13:21:23;5.20;99.90
26224;DHT22;14820;48.682;8.890;2023-02-28T13:27:32;4.80;99.90
26224;DHT22;14820;48.682;8.890;2023-02-28T13:29:37;4.70;99.90
26224;DHT22;14820;48.682;8.890;2023-02-28T13:34:36;5.00;99.90
26224;DHT22;14820;48.682;8.890;2023-02-28T13:37:41;5.30;99.90
26224;DHT22;14820;48.682;8.890;2023-02-28T13:42:36;5.70;99.90
26224;DHT22;14820;48.682;8.890;2023-02-28T14:04:30;5.90;99.90
26224;DHT22;14820;48.682;8.890;2023-02-28T14:07:03;6.30;99.90
26224;DHT22;14820;48.682;8.890;2023-02-28T14:09:35;6.30;99.90
26224;DHT22;14820;48.682;8.890;2023-02-28T14:17:58;6.60;99.90
26224;DHT22;14820;48.682;8.890;2023-02-28T14:20:29;6.70;99.90
26224;DHT22;14820;48.682;8.890;2023-02-28T14:23:10;6.90;99.90
26224;DHT22;14820;48.682;8.890;2023-02-28T14:34:45;7.30;99.90
26224;DHT22;14820;48.682;8.890;2023-02-28T14:37:20;7.30;99.90
26224;DHT22;14820;48.682;8.890;2023-02-28T14:39:49;7.30;99.90
26224;DHT22;14820;48.682;8.890;2023-02-28T14:42:33;7.30;99.90
26224;DHT22;14820;48.682;8.890;2023-02-28T14:45:00;7.10;99.90
26224;DHT22;14820;48.682;8.890;2023-02-28T14:47:30;6.80;99.90
26224;DHT22;14820;48.682;8.890;2023-02-28T14:49:58;6.60;99.90
26224;DHT22;14820;48.682;8.890;2023-02-28T14:52:28;6.50;99.90
26224;DHT22;14820;48.682;8.890;2023-02-28T14:55:06;6.50;99.90
26224;DHT22;14820;48.682;8.890;2023-02-28T14:57:42;6.50;99.90
26224;DHT22;14820;48.682;8.890;2023-02-28T15:00:23;6.60;99.90
26224;DHT22;14820;48.682;8.890;2023-02-28T15:02:49;6.70;99.90
26224;DHT22;14820;48.682;8.890;2023-02-28T15:07:44;6.70;99.90
26224;DHT22;14820;48.682;8.890;2023-02-28T15:10:23;6.70;99.90
26224;DHT22;14820;48.682;8.890;2023-02-28T15:12:55;6.70;99.90
26224;DHT22;14820;48.682;8.890;2023-02-28T15:15:26;6.80;99.90
26224;DHT22;14820;48.682;8.890;2023-02-28T15:17:56;6.90;99.90
26224;DHT22;14820;48.682;8.890;2023-02-28T15:20:23;6.80;99.90
26224;DHT22;14820;48.682;8.890;2023-02-28T15:22:51;6.70;99.90
26224;DHT22;14820;48.682;8.890;2023-02-28T15:25:22;6.80;99.90
26224;DHT22;14820;48.682;8.890;2023-02-28T15:27:53;6.60;99.90
26224;DHT22;14820;48.682;8.890;2023-02-28T15:30:30;6.60;99.90
26224;DHT22;14820;48.682;8.890;2023-02-28T15:33:19;6.70;99.90
26224;DHT22;14820;48.682;8.890;2023-02-28T15:35:45;6.80;99.90
26224;DHT22;14820;48.682;8.890;2023-02-28T15:38:25;6.60;99.90
26224;DHT22;14820;48.682;8.890;2023-02-28T15:40:55;6.50;99.90
26224;DHT22;14820;48.682;8.890;2023-02-28T15:43:37;6.40;99.90
26224;DHT22;14820;48.682;8.890;2023-02-28T15:46:11;6.30;99.90
26224;DHT22;14820;48.682;8.890;2023-02-28T15:48:53;6.20;99.90
26224;DHT22;14820;48.682;8.890;2023-02-28T15:51:36;6.10;99.90
26224;DHT22;14820;48.682;8.890;2023-02-28T15:54:06;6.10;99.90
26224;DHT22;14820;48.682;8.890;2023-02-28T15:56:38;6.10;99.90
26224;DHT22;14820;48.682;8.890;2023-02-28T15:59:12;6.00;99.90
26224;DHT22;14820;48.682;8.890;2023-02-28T16:01:39;6.00;99.90
26224;DHT22;14820;48.682;8.890;2023-02-28T16:04:12;5.90;99.90
26224;DHT22;14820;48.682;8.890;2023-02-28T16:06:41;5.90;99.90
26224;DHT22;14820;48.682;8.890;2023-02-28T16:09:13;5.90;99.90
26224;DHT22;14820;48.682;8.890;2023-02-28T16:11:44;5.80;99.90
26224;DHT22;14820;48.682;8.890;2023-02-28T16:14:18;5.80;99.90
26224;DHT22;14820;48.682;8.890;2023-02-28T16:16:47;5.80;99.90
26224;DHT22;14820;48.682;8.890;2023-02-28T16:19:13;5.80;99.90
26224;DHT22;14820;48.682;8.890;2023-02-28T16:21:39;5.80;99.90
26224;DHT22;14820;48.682;8.890;2023-02-28T16:24:05;5.90;99.90
26224;DHT22;14820;48.682;8.890;2023-02-28T16:26:31;5.90;99.90
26224;DHT22;14820;48.682;8.890;2023-02-28T16:29:00;6.00;99.90
26224;DHT22;14820;48.682;8.890;2023-02-28T16:31:27;6.10;99.90
26224;DHT22;14820;48.682;8.890;2023-02-28T16:33:53;6.00;99.90
26224;DHT22;14820;48.682;8.890;2023-02-28T16:36:23;6.00;99.90
26224;DHT22;14820;48.682;8.890;2023-02-28T16:38:54;6.00;99.90
26224;DHT22;14820;48.682;8.890;2023-02-28T16:41:23;5.90;99.90
26224;DHT22;14820;48.682;8.890;2023-02-28T16:43:52;5.90;99.90
26224;DHT22;14820;48.682;8.890;2023-02-28T16:46:19;5.80;99.90
26224;DHT22;14820;48.682;8.890;2023-02-28T16:48:46;5.70;99.90
26224;DHT22;14820;48.682;8.890;2023-02-28T16:51:17;5.60;99.90
26224;DHT22;14820;48.682;8.890;2023-02-28T16:53:43;5.50;99.90
26224;DHT22;14820;48.682;8.890;2023-02-28T16:56:21;5.40;99.90
26224;DHT22;14820;48.682;8.890;2023-02-28T16:58:48;5.20;99.90
26224;DHT22;14820;48.682;8.890;2023-02-28T17:01:16;5.00;99.90
26224;DHT22;14820;48.682;8.890;2023-02-28T17:03:42;4.80;99.90
26224;DHT22;14820;48.682;8.890;2023-02-28T17:06:20;4.70;99.90
26224;DHT22;14820;48.682;8.890;2023-02-28T17:08:47;4.70;99.90
26224;DHT22;14820;48.682;8.890;2023-02-28T17:11:13;4.60;99.90
26224;DHT22;14820;48.682;8.890;2023-02-28T17:13:39;4.40;99.90
26224;DHT22;14820;48.682;8.890;2023-02-28T17:16:05;4.20;99.90
26224;DHT22;14820;48.682;8.890;2023-02-28T17:18:31;4.20;99.90
26224;DHT22;14820;48.682;8.890;2023-02-28T17:21:00;4.10;99.90
26224;DHT22;14820;48.682;8.890;2023-02-28T17:23:26;4.00;99.90
26224;DHT22;14820;48.682;8.890;2023-02-28T17:25:51;3.90;99.90
26224;DHT22;14820;48.682;8.890;2023-02-28T17:28:21;3.90;99.90
26224;DHT22;14820;48.682;8.890;2023-02-28T17:30:47;3.90;99.90
26224;DHT22;14820;48.682;8.890;2023-02-28T17:33:14;3.80;99.90
26224;DHT22;14820;48.682;8.890;2023-02-28T17:35:40;3.70;99.90
26224;DHT22;14820;48.682;8.890;2023-02-28T17:38:15;3.70;99.90
26224;DHT22;14820;48.682;8.890;2023-02-28T17:40:41;4.10;99.90
26224;DHT22;14820;48.682;8.890;2023-02-28T17:43:06;5.80;99.90
26224;DHT22;14820;48.682;8.890;2023-02-28T17:45:32;3.40;99.90
26224;DHT22;14820;48.682;8.890;2023-02-28T17:48:00;3.40;99.90
26224;DHT22;14820;48.682;8.890;2023-02-28T17:50:26;3.30;99.90
26224;DHT22;14820;48.682;8.890;2023-02-28T17:52:52;3.30;99.90
26224;DHT22;14820;48.682;8.890;2023-02-28T17:55:17;3.20;99.90
26224;DHT22;14820;48.682;8.890;2023-02-28T17:57:44;3.10;99.90
26224;DHT22;14820;48.682;8.890;2023-02-28T18:00:14;3.10;99.90
26224;DHT22;14820;48.682;8.890;2023-02-28T18:02:41;3.10;99.90
26224;DHT22;14820;48.682;8.890;2023-02-28T18:05:07;3.10;99.90
26224;DHT22;14820;48.682;8.890;2023-02-28T18:07:34;2.90;99.90